»·PEaware :: ASA103 KSLC-KLAS

ASA103 :: KSLC-KLAS

FLIGHT INFORMATION

Flight Status: Arrived
Operator:
Alaska Airlines
More flights by this operator :: More flights under this callsign
Pilot: Steve F. (26981)
Aircraft: BOEING 737-800
(B738)
More flights by this aircraft type
Origin: KSLC Salt Lake City Intl
United States
Destination: KLAS McCarran Intl
United States
More flights between these airports :: More routes between these airports
Route: +ZIONZ1 EHK KSINO SITEE4+
File this flight plan on PilotEdge
Remarks:
Altitude:
(Current/Filed)
32,000ft
Speed:
(Current/Filed)
430kts
Departed: 15-Dec-20 03:02 PM
Arrived: 15-Dec-20 03:53 PM
Distance/Time
Traveled:
319nm/0:50
Distance/Time
To Go:
Arrived

Flight Plot

Page will automatically refresh every two minutes.

Flight plan parsing failed; only flown route is shown


Map Options




Map Legend


Flown Route
Filed Route
Departure Airport
Arrival Airport
Navaid (VOR, NDB)
Fix

Horizontal Profiles

Position Reports

Time Latitude Longitude Heading Altitude Ground
Speed
15-Dec-20 14:44 40.788778 -111.977825 266 4235ft 0kts
15-Dec-20 14:45 40.788778 -111.977825 266 4235ft 0kts
15-Dec-20 14:46 40.788778 -111.977825 266 4235ft 0kts
15-Dec-20 14:47 40.788778 -111.977825 266 4235ft 0kts
15-Dec-20 14:48 40.788778 -111.977825 266 4235ft 0kts
15-Dec-20 14:49 40.788778 -111.977825 266 4235ft 0kts
15-Dec-20 14:50 40.788778 -111.977825 266 4235ft 0kts
15-Dec-20 14:51 40.788778 -111.977825 266 4235ft 0kts
15-Dec-20 14:52 40.788781 -111.977761 266 4235ft 1kts
15-Dec-20 14:53 40.788699 -111.977299 300 4235ft 0kts
15-Dec-20 14:54 40.788700 -111.977301 300 4235ft 0kts
15-Dec-20 14:55 40.788701 -111.977303 300 4235ft 0kts
15-Dec-20 14:56 40.789490 -111.976921 359 4235ft 11kts
15-Dec-20 14:56 40.793261 -111.977386 355 4235ft 20kts
15-Dec-20 14:58 40.800941 -111.978295 355 4235ft 25kts
15-Dec-20 14:59 40.806811 -111.978967 4 4235ft 13kts
15-Dec-20 14:59 40.807349 -111.978392 83 4235ft 0kts
15-Dec-20 15:01 40.807120 -111.976827 166 4235ft 12kts
15-Dec-20 15:01 40.787678 -111.974561 175 4242ft 171kts
15-Dec-20 15:02 40.732561 -111.965029 170 6647ft 223kts
15-Dec-20 15:03 40.665008 -111.956084 178 9118ft 263kts
15-Dec-20 15:04 40.585725 -111.953461 181 11378ft 310kts
15-Dec-20 15:05 40.487897 -111.952294 180 12620ft 386kts
15-Dec-20 15:06 40.376295 -111.946331 177 15051ft 417kts
15-Dec-20 15:07 40.256017 -111.940665 184 17384ft 444kts
15-Dec-20 15:08 40.130847 -111.960410 188 19882ft 461kts
15-Dec-20 15:10 39.979421 -111.982543 188 22437ft 479kts
15-Dec-20 15:10 39.867703 -111.998808 189 24055ft 490kts
15-Dec-20 15:11 39.730310 -112.018869 189 25821ft 502kts
15-Dec-20 15:12 39.589467 -112.039294 189 27362ft 513kts
15-Dec-20 15:13 39.446240 -112.059920 189 28781ft 522kts
15-Dec-20 15:14 39.301960 -112.080430 189 30573ft 518kts
15-Dec-20 15:15 39.159698 -112.102884 196 32232ft 511kts
15-Dec-20 15:16 39.031988 -112.174863 217 32344ft 494kts
15-Dec-20 15:17 38.913210 -112.263804 216 32340ft 495kts
15-Dec-20 15:18 38.793222 -112.351492 215 32338ft 496kts
15-Dec-20 15:19 38.673201 -112.438526 215 32338ft 497kts
15-Dec-20 15:20 38.552386 -112.525515 215 32339ft 497kts
15-Dec-20 15:21 38.431627 -112.612058 215 32340ft 497kts
15-Dec-20 15:22 38.310964 -112.698184 215 32338ft 497kts
15-Dec-20 15:23 38.190148 -112.784089 215 32336ft 497kts
15-Dec-20 15:24 38.069738 -112.869393 215 32330ft 496kts
15-Dec-20 15:25 37.949076 -112.954720 215 32329ft 494kts
15-Dec-20 15:26 37.829059 -113.038971 215 32329ft 493kts
15-Dec-20 15:27 37.713257 -113.129609 221 32330ft 487kts
15-Dec-20 15:28 37.601481 -113.225851 220 32329ft 486kts
15-Dec-20 15:29 37.489313 -113.321225 220 32329ft 485kts
15-Dec-20 15:30 37.377249 -113.416371 220 32330ft 485kts
15-Dec-20 15:31 37.265109 -113.510951 220 30996ft 488kts
15-Dec-20 15:32 37.150702 -113.607012 219 28692ft 498kts
15-Dec-20 15:33 37.035225 -113.703594 219 26396ft 502kts
15-Dec-20 15:34 36.920924 -113.798845 219 24088ft 479kts
15-Dec-20 15:35 36.812494 -113.889052 220 21678ft 460kts
15-Dec-20 15:36 36.707693 -113.975810 219 19180ft 446kts
15-Dec-20 15:37 36.606406 -114.059379 221 17005ft 425kts
15-Dec-20 15:38 36.533067 -114.166049 244 14532ft 399kts
15-Dec-20 15:39 36.474571 -114.282586 242 12334ft 386kts
15-Dec-20 15:40 36.435162 -114.359215 242 11979ft 349kts
15-Dec-20 15:41 36.386418 -114.453818 242 11830ft 310kts
15-Dec-20 15:42 36.340222 -114.543686 241 10824ft 306kts
15-Dec-20 15:43 36.291089 -114.628373 218 9942ft 301kts
15-Dec-20 15:44 36.214859 -114.666978 198 8914ft 291kts
15-Dec-20 15:45 36.139175 -114.699051 198 8010ft 283kts
15-Dec-20 15:46 36.071818 -114.740208 243 7981ft 255kts
15-Dec-20 15:47 36.072601 -114.824036 274 6873ft 247kts
15-Dec-20 15:48 36.074040 -114.909274 271 5732ft 243kts
15-Dec-20 15:49 36.074054 -114.987325 270 4818ft 213kts
15-Dec-20 15:50 36.073879 -115.057957 270 3298ft 192kts
15-Dec-20 15:51 36.073644 -115.115455 272 2381ft 156kts
15-Dec-20 15:52 36.074004 -115.148988 299 2189ft 17kts
15-Dec-20 15:53 36.077001 -115.152282 339 2189ft 16kts
15-Dec-20 15:54 36.077577 -115.145795 93 2189ft 20kts
15-Dec-20 15:55 36.079846 -115.144793 293 2189ft 11kts
15-Dec-20 15:56 36.080102 -115.145594 290 2189ft 0kts

Navigation Log

Ident Type
Flight plan parsing failed, navigation log unavailable